createdAt,value
2023-05-17T00:01:47.211Z,0.70
2023-05-17T00:04:16.544Z,0.85
2023-05-17T00:06:45.100Z,0.60
2023-05-17T00:09:13.678Z,0.60
2023-05-17T00:11:42.117Z,0.60
2023-05-17T00:14:13.032Z,0.75
2023-05-17T00:16:43.037Z,0.88
2023-05-17T00:19:11.836Z,1.17
2023-05-17T00:21:42.243Z,0.90
2023-05-17T00:24:10.784Z,0.80
2023-05-17T00:26:40.049Z,1.05
2023-05-17T00:29:09.260Z,0.80
2023-05-17T00:31:37.879Z,0.90
2023-05-17T00:34:08.529Z,0.80
2023-05-17T00:36:37.352Z,0.90
2023-05-17T00:39:06.782Z,1.20
2023-05-17T00:41:37.194Z,0.80
2023-05-17T00:44:05.987Z,0.80
2023-05-17T00:46:34.799Z,0.85
2023-05-17T00:49:03.513Z,0.70
2023-05-17T00:51:37.664Z,0.80
2023-05-17T00:54:06.461Z,0.90
2023-05-17T00:56:36.910Z,0.90
2023-05-17T00:59:06.204Z,0.90
2023-05-17T01:01:38.208Z,0.90
2023-05-17T01:04:10.621Z,1.00
2023-05-17T01:06:40.101Z,1.10
2023-05-17T01:09:11.762Z,0.93
2023-05-17T01:12:10.574Z,1.38
2023-05-17T01:14:53.645Z,0.60
2023-05-17T01:17:42.207Z,1.00
2023-05-17T01:20:19.041Z,1.08
2023-05-17T01:22:54.617Z,1.02
2023-05-17T01:25:42.141Z,1.00
2023-05-17T01:28:11.688Z,1.33
2023-05-17T01:30:40.749Z,1.17
2023-05-17T01:33:23.569Z,1.23
2023-05-17T01:35:53.334Z,1.25
2023-05-17T01:38:22.098Z,1.25
2023-05-17T01:41:11.161Z,1.08
2023-05-17T01:43:56.107Z,1.50
2023-05-17T01:46:34.115Z,1.40
2023-05-17T01:49:05.428Z,1.40
2023-05-17T01:51:34.860Z,1.40
2023-05-17T01:54:04.231Z,2.25
2023-05-17T01:56:35.263Z,1.33
2023-05-17T01:59:07.706Z,1.33
2023-05-17T02:01:36.074Z,0.85
2023-05-17T02:04:04.981Z,1.05
2023-05-17T02:06:37.785Z,1.20
2023-05-17T02:09:06.322Z,1.10
2023-05-17T02:11:37.368Z,1.50
2023-05-17T02:14:05.693Z,1.20
2023-05-17T02:16:34.321Z,1.63
2023-05-17T02:19:02.778Z,1.33
2023-05-17T02:21:42.411Z,1.88
2023-05-17T02:24:15.009Z,1.60
2023-05-17T02:26:51.143Z,1.30
2023-05-17T02:29:21.775Z,1.63
2023-05-17T02:31:52.168Z,1.20
2023-05-17T02:34:20.812Z,1.27
2023-05-17T02:36:53.849Z,1.35
2023-05-17T02:39:24.910Z,1.73
2023-05-17T02:41:56.882Z,2.10
2023-05-17T02:44:25.677Z,1.63
2023-05-17T02:46:57.503Z,1.35
2023-05-17T02:49:25.863Z,1.88
2023-05-17T02:51:56.536Z,1.88
2023-05-17T02:54:26.724Z,1.77
2023-05-17T02:56:55.838Z,1.60
2023-05-17T02:59:25.950Z,1.85
2023-05-17T03:01:55.713Z,2.55
2023-05-17T03:04:26.092Z,2.28
2023-05-17T03:06:56.993Z,2.20
2023-05-17T03:09:25.542Z,1.83
2023-05-17T03:11:56.043Z,1.52
2023-05-17T03:14:36.060Z,1.70
2023-05-17T03:17:07.803Z,1.35
2023-05-17T03:19:41.017Z,3.08
2023-05-17T03:22:34.375Z,1.83
2023-05-17T03:25:05.191Z,1.60
2023-05-17T03:27:39.157Z,1.65
2023-05-17T03:30:10.616Z,1.60
2023-05-17T03:32:46.145Z,1.48
2023-05-17T03:35:18.189Z,1.75
2023-05-17T03:37:54.555Z,1.73
2023-05-17T03:40:23.225Z,1.63
2023-05-17T03:42:59.056Z,1.50
2023-05-17T03:45:30.477Z,1.80
2023-05-17T03:48:07.212Z,1.90
2023-05-17T03:50:42.152Z,1.98
2023-05-17T03:53:12.068Z,1.48
2023-05-17T03:55:41.570Z,1.80
2023-05-17T03:58:09.924Z,1.45
2023-05-17T04:00:41.240Z,2.03
2023-05-17T04:03:32.929Z,1.80
2023-05-17T04:06:07.521Z,2.05
2023-05-17T04:08:40.385Z,2.17
2023-05-17T04:11:13.089Z,2.67
2023-05-17T04:13:47.426Z,1.17
2023-05-17T04:16:16.480Z,2.15
2023-05-17T04:18:52.854Z,1.85
2023-05-17T04:21:23.357Z,2.22
2023-05-17T04:26:27.229Z,2.10
2023-05-17T04:28:58.193Z,1.88
2023-05-17T04:31:33.029Z,2.47
2023-05-17T04:34:02.665Z,2.22
2023-05-17T04:36:33.770Z,2.30
2023-05-17T04:39:05.436Z,2.28
2023-05-17T04:41:34.443Z,2.45
2023-05-17T04:44:05.096Z,2.30
2023-05-17T04:46:37.860Z,1.45
2023-05-17T04:49:07.425Z,2.40
2023-05-17T04:51:36.003Z,2.42
2023-05-17T04:54:08.601Z,2.20
2023-05-17T04:56:40.402Z,2.63
2023-05-17T04:59:15.867Z,2.53
2023-05-17T05:01:44.833Z,2.47
2023-05-17T05:04:16.672Z,2.88
2023-05-17T05:06:48.253Z,2.55
2023-05-17T05:09:19.123Z,3.90
2023-05-17T05:11:48.952Z,2.58
2023-05-17T05:14:18.772Z,2.60
2023-05-17T05:16:48.037Z,3.65
2023-05-17T05:19:19.336Z,3.58
2023-05-17T05:21:48.100Z,4.20
2023-05-17T05:24:16.678Z,4.18
2023-05-17T05:26:46.391Z,4.00
2023-05-17T05:29:23.036Z,3.88
2023-05-17T05:31:53.714Z,3.75
2023-05-17T05:34:24.120Z,3.90
2023-05-17T05:36:52.745Z,3.75
2023-05-17T05:39:21.406Z,3.70
2023-05-17T05:41:51.960Z,3.40
2023-05-17T05:44:23.347Z,3.45
2023-05-17T05:49:25.040Z,3.10
2023-05-17T05:51:53.430Z,3.63
2023-05-17T05:54:24.134Z,3.55
2023-05-17T05:56:54.517Z,3.33
2023-05-17T05:59:23.982Z,3.05
2023-05-17T06:01:53.336Z,3.30
2023-05-17T06:04:29.746Z,2.38
2023-05-17T06:07:06.556Z,3.25
2023-05-17T06:09:35.687Z,3.20
2023-05-17T06:12:04.671Z,3.65
2023-05-17T06:14:37.469Z,2.47
2023-05-17T06:17:07.769Z,3.70
2023-05-17T06:19:38.482Z,2.50
2023-05-17T06:22:10.306Z,2.22
2023-05-17T06:24:39.002Z,2.22
2023-05-17T06:27:10.895Z,1.30
2023-05-17T06:29:39.685Z,1.02
2023-05-17T06:32:08.441Z,0.95
2023-05-17T06:34:40.061Z,0.63
2023-05-17T06:37:11.320Z,0.85
2023-05-17T06:39:51.555Z,0.93
2023-05-17T06:42:33.993Z,1.15
2023-05-17T06:45:10.288Z,1.55
2023-05-17T06:47:44.895Z,0.80
2023-05-17T06:50:13.407Z,0.88
2023-05-17T06:52:42.797Z,0.57
2023-05-17T06:55:12.484Z,0.95
2023-05-17T06:57:44.181Z,1.40
2023-05-17T07:00:13.636Z,0.95
2023-05-17T07:02:56.074Z,0.70
2023-05-17T07:05:25.825Z,0.82
2023-05-17T07:07:59.586Z,1.05
2023-05-17T07:10:31.202Z,1.08
2023-05-17T07:13:02.953Z,1.23
2023-05-17T07:15:33.947Z,1.10
2023-05-17T07:18:02.885Z,1.02
2023-05-17T07:20:35.739Z,0.93
2023-05-17T07:23:06.488Z,1.20
2023-05-17T07:25:38.712Z,0.85
2023-05-17T07:28:10.105Z,1.80
2023-05-17T07:30:40.107Z,1.38
2023-05-17T07:33:23.879Z,0.52
2023-05-17T07:35:52.709Z,0.95
2023-05-17T07:38:23.648Z,0.77
2023-05-17T07:40:52.610Z,1.00
2023-05-17T07:43:26.733Z,0.73
2023-05-17T07:45:56.914Z,1.02
2023-05-17T07:48:26.574Z,0.70
2023-05-17T07:50:56.208Z,0.80
2023-05-17T07:53:25.061Z,1.60
2023-05-17T07:55:57.877Z,1.30
2023-05-17T07:58:26.461Z,0.68
2023-05-17T08:00:57.239Z,0.82
2023-05-17T08:03:32.496Z,1.17
2023-05-17T08:06:04.660Z,0.60
2023-05-17T08:08:33.267Z,0.65
2023-05-17T08:11:02.287Z,1.00
2023-05-17T08:13:31.223Z,0.60
2023-05-17T08:16:12.919Z,0.75
2023-05-17T08:18:45.717Z,0.82
2023-05-17T08:21:14.348Z,1.00
2023-05-17T08:23:44.669Z,1.05
2023-05-17T08:26:13.988Z,0.88
2023-05-17T08:28:48.790Z,0.82
2023-05-17T08:31:19.980Z,0.90
2023-05-17T08:33:50.006Z,0.47
2023-05-17T08:36:18.707Z,0.70
2023-05-17T08:38:48.677Z,0.40
2023-05-17T08:41:20.762Z,0.90
2023-05-17T08:43:50.794Z,1.17
2023-05-17T08:46:24.142Z,0.93
2023-05-17T08:48:59.957Z,1.13
2023-05-17T08:51:29.807Z,0.50
2023-05-17T08:54:05.099Z,0.70
2023-05-17T08:56:35.816Z,0.75
2023-05-17T08:59:06.691Z,1.30
2023-05-17T09:01:40.436Z,0.82
2023-05-17T09:04:12.631Z,0.50
2023-05-17T09:06:41.417Z,0.52
2023-05-17T09:09:12.330Z,2.35
2023-05-17T09:11:42.286Z,0.88
2023-05-17T09:14:12.125Z,0.52
2023-05-17T09:16:40.737Z,0.63
2023-05-17T09:19:09.970Z,1.00
2023-05-17T09:21:39.106Z,0.68
2023-05-17T09:24:10.771Z,0.95
2023-05-17T09:26:43.384Z,1.08
2023-05-17T09:31:43.785Z,1.10
2023-05-17T09:34:12.819Z,1.10
2023-05-17T09:36:45.238Z,0.63
2023-05-17T09:39:16.393Z,0.60
2023-05-17T09:41:48.266Z,0.70
2023-05-17T09:44:17.621Z,0.80
2023-05-17T09:46:47.968Z,0.77
2023-05-17T09:49:19.025Z,0.57
2023-05-17T09:51:50.480Z,1.02
2023-05-17T09:54:19.341Z,0.50
2023-05-17T09:56:59.659Z,1.17
2023-05-17T09:59:29.832Z,0.77
2023-05-17T10:01:58.961Z,0.52
2023-05-17T10:04:31.909Z,0.70
2023-05-17T10:07:05.365Z,0.80
2023-05-17T10:09:36.959Z,0.63
2023-05-17T10:12:10.363Z,0.65
2023-05-17T10:14:44.068Z,0.90
2023-05-17T10:17:14.098Z,1.48
2023-05-17T10:19:44.765Z,1.42
2023-05-17T10:22:22.458Z,0.75
2023-05-17T10:24:58.497Z,0.75
2023-05-17T10:27:33.218Z,0.93
2023-05-17T10:30:03.667Z,0.80
2023-05-17T10:32:46.608Z,0.73
2023-05-17T10:35:18.703Z,0.80
2023-05-17T10:37:48.856Z,1.70
2023-05-17T10:40:17.931Z,0.57
2023-05-17T10:42:53.305Z,0.65
2023-05-17T10:45:22.712Z,0.70
2023-05-17T10:47:57.185Z,0.85
2023-05-17T10:50:28.947Z,1.05
2023-05-17T10:52:59.305Z,1.02
2023-05-17T10:55:38.087Z,0.68
2023-05-17T10:58:16.037Z,0.70
2023-05-17T11:00:55.871Z,1.23
2023-05-17T11:03:30.120Z,1.30
2023-05-17T11:06:23.572Z,0.85
2023-05-17T11:09:09.461Z,0.70
2023-05-17T11:12:00.072Z,0.50
2023-05-17T11:14:46.484Z,0.65
2023-05-17T11:17:15.723Z,0.60
2023-05-17T11:20:13.567Z,0.70
2023-05-17T11:22:43.114Z,1.13
2023-05-17T11:25:12.609Z,0.88
2023-05-17T11:27:47.736Z,0.80
2023-05-17T11:30:26.726Z,0.82
2023-05-17T11:33:17.323Z,0.70
2023-05-17T11:35:56.398Z,1.25
2023-05-17T11:38:32.478Z,0.93
2023-05-17T11:41:26.361Z,0.90
2023-05-17T11:43:56.000Z,0.50
2023-05-17T11:46:25.016Z,0.60
2023-05-17T11:48:55.517Z,0.80
2023-05-17T11:51:25.153Z,0.57
2023-05-17T11:53:57.183Z,1.15
2023-05-17T11:56:39.404Z,0.47
2023-05-17T11:59:11.299Z,0.75
2023-05-17T12:01:47.373Z,1.00
2023-05-17T12:04:24.593Z,0.57
2023-05-17T12:06:53.685Z,0.70
2023-05-17T12:09:26.507Z,0.70
2023-05-17T12:11:57.435Z,0.82
2023-05-17T12:14:27.717Z,0.52
2023-05-17T12:16:57.209Z,0.98
2023-05-17T12:19:29.822Z,1.17
2023-05-17T12:22:12.472Z,0.55
2023-05-17T12:24:44.904Z,0.80
2023-05-17T12:27:25.701Z,0.52
2023-05-17T12:29:54.409Z,0.70
2023-05-17T12:32:23.482Z,0.68
2023-05-17T12:34:54.468Z,1.00
2023-05-17T12:37:23.514Z,0.70
2023-05-17T12:39:58.803Z,0.70
2023-05-17T12:42:30.984Z,0.45
2023-05-17T12:45:03.195Z,0.77
2023-05-17T12:47:39.156Z,0.50
2023-05-17T12:50:11.186Z,0.70
2023-05-17T12:52:49.043Z,1.52
2023-05-17T12:55:17.715Z,0.65
2023-05-17T12:57:56.182Z,0.65
2023-05-17T13:00:27.537Z,0.70
2023-05-17T13:03:15.542Z,0.90
2023-05-17T13:05:46.564Z,0.52
2023-05-17T13:08:21.621Z,1.27
2023-05-17T13:10:52.398Z,0.80
2023-05-17T13:13:22.604Z,0.60
2023-05-17T13:15:52.862Z,0.63
2023-05-17T13:18:24.702Z,0.57
2023-05-17T13:20:53.407Z,0.65
2023-05-17T13:23:22.353Z,0.80
2023-05-17T13:25:54.007Z,0.85
2023-05-17T13:28:22.392Z,0.70
2023-05-17T13:30:52.608Z,0.75
2023-05-17T13:33:25.093Z,0.80
2023-05-17T13:35:58.102Z,0.97
2023-05-17T13:38:31.415Z,0.80
2023-05-17T13:41:01.328Z,0.65
2023-05-17T13:43:32.396Z,0.45
2023-05-17T13:46:02.742Z,0.80
2023-05-17T13:48:32.282Z,0.98
2023-05-17T13:51:05.239Z,0.82
2023-05-17T13:53:39.628Z,0.70
2023-05-17T13:56:08.644Z,0.88
2023-05-17T13:58:37.111Z,0.77
2023-05-17T14:01:06.493Z,0.70
2023-05-17T14:03:36.456Z,0.68
2023-05-17T14:06:06.375Z,0.57
2023-05-17T14:08:38.652Z,1.23
2023-05-17T14:11:07.939Z,0.70
2023-05-17T14:13:36.615Z,0.80
2023-05-17T14:16:06.203Z,0.70
2023-05-17T14:18:38.069Z,0.95
2023-05-17T14:21:09.094Z,0.73
2023-05-17T14:23:37.548Z,1.00
2023-05-17T14:26:09.388Z,0.57
2023-05-17T14:28:41.030Z,1.23
2023-05-17T14:31:10.726Z,0.70
2023-05-17T14:33:48.965Z,0.50
2023-05-17T14:36:17.396Z,0.85
2023-05-17T14:38:47.630Z,0.73
2023-05-17T14:41:19.560Z,0.80
2023-05-17T14:43:48.003Z,0.82
2023-05-17T14:46:19.653Z,0.80
2023-05-17T14:48:48.457Z,0.80
2023-05-17T14:51:17.006Z,0.47
2023-05-17T14:53:45.646Z,0.85
2023-05-17T14:56:15.192Z,0.52
2023-05-17T14:58:43.710Z,0.55
2023-05-17T15:01:12.226Z,0.63
2023-05-17T15:03:51.804Z,0.68
2023-05-17T15:06:24.947Z,0.85
2023-05-17T15:08:56.139Z,0.80
2023-05-17T15:11:24.560Z,0.63
2023-05-17T15:13:53.747Z,0.65
2023-05-17T15:16:23.480Z,0.90
2023-05-17T15:18:52.525Z,0.68
2023-05-17T15:21:22.799Z,0.60
2023-05-17T15:23:54.141Z,0.75
2023-05-17T15:26:23.052Z,0.90
2023-05-17T15:28:52.131Z,0.80
2023-05-17T15:31:24.318Z,0.98
2023-05-17T15:33:55.766Z,1.33
2023-05-17T15:36:25.180Z,0.93
2023-05-17T15:38:54.207Z,1.00
2023-05-17T15:41:29.672Z,1.20
2023-05-17T15:43:59.374Z,0.80
2023-05-17T15:46:30.435Z,1.00
2023-05-17T15:48:59.081Z,0.47
2023-05-17T15:51:28.102Z,0.80
2023-05-17T15:53:57.014Z,0.82
2023-05-17T15:56:28.737Z,1.27
2023-05-17T15:58:57.500Z,0.80
2023-05-17T16:01:26.763Z,1.13
2023-05-17T16:03:59.451Z,0.55
2023-05-17T16:06:34.713Z,1.13
2023-05-17T16:09:04.251Z,1.25
2023-05-17T16:11:40.652Z,3.90
2023-05-17T16:14:13.472Z,1.40
2023-05-17T16:16:45.296Z,0.85
2023-05-17T16:19:14.178Z,1.00
2023-05-17T16:21:45.613Z,0.82
2023-05-17T16:29:01.834Z,0.68
2023-05-17T16:31:34.100Z,1.40
2023-05-17T16:34:05.500Z,1.10
2023-05-17T16:36:36.674Z,0.60
2023-05-17T16:39:07.269Z,0.80
2023-05-17T16:41:41.828Z,0.70
2023-05-17T16:44:14.249Z,1.05
2023-05-17T16:46:43.428Z,1.20
2023-05-17T16:49:12.794Z,0.80
2023-05-17T16:51:43.867Z,0.80
2023-05-17T16:54:13.792Z,1.25
2023-05-17T16:56:46.099Z,0.82
2023-05-17T16:59:18.100Z,0.85
2023-05-17T17:01:50.463Z,1.05
2023-05-17T17:04:19.757Z,0.80
2023-05-17T17:06:52.334Z,1.25
2023-05-17T17:09:21.025Z,1.00
2023-05-17T17:11:49.645Z,1.10
2023-05-17T17:14:22.075Z,0.77
2023-05-17T17:16:54.097Z,1.35
2023-05-17T17:19:25.255Z,1.10
2023-05-17T17:21:53.668Z,1.13
2023-05-17T17:24:22.068Z,0.90
2023-05-17T17:26:51.841Z,1.02
2023-05-17T17:29:20.089Z,0.95
2023-05-17T17:31:50.880Z,1.05
2023-05-17T17:34:21.988Z,1.05
2023-05-17T17:36:54.622Z,1.10
2023-05-17T17:39:25.593Z,0.90
2023-05-17T17:41:56.661Z,0.80
2023-05-17T17:44:25.618Z,1.17
2023-05-17T17:46:56.588Z,1.10
2023-05-17T17:49:26.502Z,0.70
2023-05-17T17:51:59.020Z,0.77
2023-05-17T17:54:28.909Z,2.03
2023-05-17T17:56:58.102Z,1.02
2023-05-17T17:59:26.703Z,0.93
2023-05-17T18:01:56.261Z,1.08
2023-05-17T18:04:24.786Z,1.38
2023-05-17T18:06:56.588Z,0.70
2023-05-17T18:09:27.723Z,1.58
2023-05-17T18:11:57.485Z,1.42
2023-05-17T18:14:26.040Z,1.02
2023-05-17T18:16:54.795Z,1.08
2023-05-17T18:19:23.959Z,1.10
2023-05-17T18:21:55.457Z,1.00
2023-05-17T18:24:26.432Z,1.15
2023-05-17T18:26:57.565Z,0.90
2023-05-17T18:29:26.014Z,0.93
2023-05-17T18:31:56.182Z,0.93
2023-05-17T18:34:27.443Z,0.98
2023-05-17T18:36:55.766Z,1.00
2023-05-17T18:39:24.875Z,1.38
2023-05-17T18:41:53.218Z,0.77
2023-05-17T18:44:21.804Z,0.80
2023-05-17T18:46:50.868Z,1.63
2023-05-17T18:49:21.274Z,0.85
2023-05-17T18:51:49.919Z,0.90
2023-05-17T18:54:18.277Z,0.93
2023-05-17T18:56:46.658Z,1.38
2023-05-17T18:59:18.395Z,1.25
2023-05-17T19:01:46.981Z,0.90
2023-05-17T19:04:18.230Z,1.17
2023-05-17T19:06:47.224Z,1.00
2023-05-17T19:09:17.119Z,0.93
2023-05-17T19:11:46.475Z,0.70
2023-05-17T19:14:15.703Z,1.10
2023-05-17T19:16:45.391Z,0.90
2023-05-17T19:19:16.560Z,1.02
2023-05-17T19:21:47.663Z,1.05
2023-05-17T19:24:17.602Z,0.65
2023-05-17T19:26:48.276Z,0.80
2023-05-17T19:29:19.505Z,1.42
2023-05-17T19:31:48.239Z,0.88
2023-05-17T19:34:17.224Z,1.17
2023-05-17T19:36:47.925Z,0.82
2023-05-17T19:39:18.603Z,1.08
2023-05-17T19:41:48.282Z,1.15
2023-05-17T19:44:16.727Z,0.93
2023-05-17T19:46:45.839Z,1.27
2023-05-17T19:49:14.616Z,0.77
2023-05-17T19:51:43.259Z,1.10
2023-05-17T19:54:12.084Z,0.70
2023-05-17T19:56:40.678Z,0.70
2023-05-17T19:59:10.950Z,0.98
2023-05-17T20:01:39.786Z,0.98
2023-05-17T20:04:10.391Z,0.68
2023-05-17T20:06:39.379Z,0.65
2023-05-17T20:09:08.257Z,0.77
2023-05-17T20:11:39.569Z,0.88
2023-05-17T20:14:09.657Z,1.38
2023-05-17T20:16:38.169Z,1.10
2023-05-17T20:19:07.911Z,0.93
2023-05-17T20:21:36.882Z,1.75
2023-05-17T20:24:08.518Z,1.40
2023-05-17T20:26:39.616Z,0.60
2023-05-17T20:29:09.218Z,0.60
2023-05-17T20:31:40.134Z,1.00
2023-05-17T20:34:11.940Z,1.02
2023-05-17T20:36:40.758Z,1.40
2023-05-17T20:39:09.602Z,1.08
2023-05-17T20:41:38.254Z,0.85
2023-05-17T20:44:06.734Z,0.57
2023-05-17T20:46:38.713Z,1.27
2023-05-17T20:49:09.760Z,0.82
2023-05-17T20:51:38.185Z,0.90
2023-05-17T20:54:08.726Z,0.95
2023-05-17T20:56:40.188Z,1.05
2023-05-17T20:59:09.782Z,0.93
2023-05-17T21:01:38.726Z,1.50
2023-05-17T21:04:07.309Z,0.82
2023-05-17T21:06:42.049Z,0.70
2023-05-17T21:09:10.281Z,1.00
2023-05-17T21:11:38.909Z,0.80
2023-05-17T21:14:08.754Z,0.63
2023-05-17T21:16:39.654Z,0.80
2023-05-17T21:19:08.838Z,1.27
2023-05-17T21:21:38.386Z,1.58
2023-05-17T21:24:06.997Z,1.15
2023-05-17T21:26:36.336Z,0.82
2023-05-17T21:29:07.444Z,1.05
2023-05-17T21:31:38.491Z,1.05
2023-05-17T21:34:07.453Z,1.48
2023-05-17T21:36:39.561Z,0.85
2023-05-17T21:39:15.145Z,1.00
2023-05-17T21:41:43.757Z,1.00
2023-05-17T21:44:14.429Z,1.17
2023-05-17T21:46:43.021Z,0.93
2023-05-17T21:49:13.605Z,0.70
2023-05-17T21:51:43.838Z,1.15
2023-05-17T21:54:12.996Z,1.10
2023-05-17T21:56:41.346Z,0.77
2023-05-17T21:59:11.423Z,0.88
2023-05-17T22:01:47.001Z,1.45
2023-05-17T22:04:23.883Z,1.38
2023-05-17T22:06:56.841Z,1.15
2023-05-17T22:09:31.256Z,1.02
2023-05-17T22:12:04.986Z,1.10
2023-05-17T22:14:36.830Z,0.90
2023-05-17T22:17:08.471Z,1.27
2023-05-17T22:19:40.375Z,1.10
2023-05-17T22:22:09.117Z,0.93
2023-05-17T22:24:42.286Z,1.52
2023-05-17T22:27:12.858Z,1.10
2023-05-17T22:29:41.891Z,1.00
2023-05-17T22:32:11.171Z,1.40
2023-05-17T22:34:40.981Z,1.40
2023-05-17T22:37:12.584Z,1.58
2023-05-17T22:39:49.294Z,1.00
2023-05-17T22:42:20.872Z,1.38
2023-05-17T22:44:49.870Z,1.17
2023-05-17T22:47:22.780Z,1.00
2023-05-17T22:52:22.901Z,1.23
2023-05-17T22:54:52.163Z,0.75
2023-05-17T22:57:23.375Z,1.00
2023-05-17T22:59:57.486Z,1.10
2023-05-17T23:02:26.763Z,1.15
2023-05-17T23:05:03.222Z,0.90
2023-05-17T23:07:37.351Z,0.90
2023-05-17T23:10:10.786Z,1.08
2023-05-17T23:12:46.497Z,1.00
2023-05-17T23:15:16.252Z,0.75
2023-05-17T23:17:50.937Z,0.80
2023-05-17T23:20:20.192Z,1.70
2023-05-17T23:22:55.078Z,1.08
2023-05-17T23:25:24.070Z,0.85
2023-05-17T23:27:53.274Z,1.92
2023-05-17T23:30:27.906Z,1.17
2023-05-17T23:33:16.238Z,1.00
2023-05-17T23:35:44.676Z,0.90
2023-05-17T23:38:15.179Z,1.08
2023-05-17T23:40:44.811Z,1.20
2023-05-17T23:43:14.647Z,0.90
2023-05-17T23:45:43.515Z,0.90
2023-05-17T23:48:16.029Z,0.80
2023-05-17T23:50:45.616Z,0.90
2023-05-17T23:53:14.055Z,0.90
2023-05-17T23:55:44.548Z,1.20
2023-05-17T23:58:15.764Z,0.80
